createdAt,value
2022-11-17T07:57:30.911Z,72.18
2022-11-17T07:58:25.656Z,72.44
2022-11-17T07:59:25.241Z,72.94
2022-11-17T08:00:25.357Z,73.21
2022-11-17T08:01:25.275Z,73.31
2022-11-17T08:02:25.188Z,73.25
2022-11-17T08:03:26.154Z,73.14
2022-11-17T08:04:25.152Z,72.95
2022-11-17T08:05:26.116Z,72.73
2022-11-17T08:06:25.249Z,72.50
2022-11-17T08:07:25.206Z,72.28
2022-11-17T08:08:25.504Z,72.08
2022-11-17T08:09:26.757Z,71.89
2022-11-17T08:10:25.129Z,71.70
2022-11-17T08:11:25.056Z,71.54
2022-11-17T08:12:25.031Z,71.40
2022-11-17T08:13:25.487Z,71.26
2022-11-17T08:14:25.083Z,71.14
2022-11-17T08:15:25.983Z,71.02
2022-11-17T08:16:25.346Z,70.91
2022-11-17T08:17:24.992Z,70.82
2022-11-17T08:18:25.414Z,70.72
2022-11-17T08:19:24.993Z,70.64
2022-11-17T08:20:26.254Z,70.56
2022-11-17T08:22:38.713Z,70.25
2022-11-17T08:24:19.803Z,70.37
2022-11-17T08:24:43.645Z,70.36
2022-11-17T08:26:50.895Z,70.02
2022-11-17T08:28:58.487Z,69.88
2022-11-17T08:30:32.373Z,70.05
2022-11-17T08:30:55.562Z,70.07
2022-11-17T08:32:33.344Z,70.04
2022-11-17T08:32:53.074Z,70.02
2022-11-17T08:34:43.735Z,69.73
2022-11-17T08:35:48.116Z,69.93
2022-11-17T08:37:22.007Z,69.93
2022-11-17T08:37:40.883Z,69.92
2022-11-17T08:38:46.302Z,69.86
2022-11-17T08:40:52.773Z,69.57
2022-11-17T08:43:01.278Z,69.49
2022-11-17T08:45:12.570Z,69.44
2022-11-17T08:46:07.349Z,69.63
2022-11-17T08:47:06.394Z,69.65
2022-11-17T08:48:06.450Z,69.64
2022-11-17T08:49:06.577Z,69.64
2022-11-17T08:50:09.682Z,69.62
2022-11-17T08:51:06.348Z,69.58
2022-11-17T08:52:08.063Z,69.57
2022-11-17T08:53:06.857Z,69.52
2022-11-17T08:54:06.321Z,69.49
2022-11-17T08:55:06.662Z,69.45
2022-11-17T08:56:06.257Z,69.42
2022-11-17T08:57:07.069Z,69.42
2022-11-17T08:58:07.172Z,69.38
2022-11-17T08:59:08.001Z,69.38
2022-11-17T09:00:06.185Z,69.36
2022-11-17T09:01:06.316Z,69.36
2022-11-17T09:02:06.196Z,69.30
2022-11-17T09:03:06.174Z,69.27
2022-11-17T09:04:07.054Z,69.24
2022-11-17T09:05:06.121Z,69.22
2022-11-17T09:06:06.193Z,69.19
2022-11-17T09:07:06.169Z,69.14
2022-11-17T09:08:29.801Z,69.13
2022-11-17T09:09:08.032Z,69.09
2022-11-17T09:10:06.163Z,69.06
2022-11-17T09:11:06.416Z,69.03
2022-11-17T09:12:06.195Z,69.03
2022-11-17T09:13:06.093Z,69.03
2022-11-17T09:14:09.711Z,69.04
2022-11-17T09:15:06.982Z,69.04
2022-11-17T09:16:10.772Z,69.07
2022-11-17T09:17:06.069Z,69.10
2022-11-17T09:18:06.249Z,69.10
2022-11-17T09:19:06.000Z,69.10
2022-11-17T09:20:10.884Z,69.12
2022-11-17T09:21:07.261Z,69.13
2022-11-17T09:22:05.982Z,69.12
2022-11-17T09:23:05.909Z,69.15
2022-11-17T09:24:06.205Z,69.19
2022-11-17T09:25:11.909Z,69.22
2022-11-17T09:26:07.388Z,69.24
2022-11-17T09:27:07.436Z,69.25
2022-11-17T09:28:05.958Z,69.24
2022-11-17T09:29:06.246Z,69.24
2022-11-17T09:30:06.755Z,69.26
2022-11-17T09:31:05.927Z,69.25
2022-11-17T09:32:06.044Z,69.23
2022-11-17T09:33:06.708Z,69.20
2022-11-17T09:34:06.139Z,69.16
2022-11-17T09:35:05.728Z,69.18
2022-11-17T09:36:05.763Z,69.18
2022-11-17T09:37:06.050Z,69.20
2022-11-17T09:38:05.708Z,69.22
2022-11-17T09:39:06.768Z,69.26
2022-11-17T09:40:05.807Z,69.27
2022-11-17T09:41:05.671Z,69.29
2022-11-17T09:42:06.135Z,69.33
2022-11-17T09:43:07.506Z,69.34
2022-11-17T09:44:06.634Z,69.39
2022-11-17T09:45:07.167Z,69.43
2022-11-17T09:46:07.793Z,69.47
2022-11-17T09:47:06.821Z,69.46
2022-11-17T09:48:25.859Z,69.48
2022-11-17T09:49:07.365Z,69.48
2022-11-17T09:50:07.284Z,69.46
2022-11-17T09:51:06.894Z,69.47
2022-11-17T09:52:06.092Z,69.47
2022-11-17T09:53:05.901Z,69.47
2022-11-17T09:54:10.448Z,69.48
2022-11-17T09:55:06.660Z,69.48
2022-11-17T09:56:14.008Z,69.49
2022-11-17T09:57:06.079Z,69.45
2022-11-17T09:58:07.315Z,69.44
2022-11-17T09:59:05.510Z,69.42
2022-11-17T10:00:07.511Z,69.41
2022-11-17T10:01:07.170Z,69.43
2022-11-17T10:02:06.698Z,69.42
2022-11-17T10:03:06.041Z,69.39
2022-11-17T10:04:09.786Z,69.38
2022-11-17T10:05:07.432Z,69.38
2022-11-17T10:06:06.192Z,69.38
2022-11-17T10:07:07.798Z,69.38
2022-11-17T10:08:06.111Z,69.32
2022-11-17T10:09:06.835Z,69.34
2022-11-17T10:10:13.931Z,69.33
2022-11-17T10:11:06.546Z,69.32
2022-11-17T10:12:05.870Z,69.29
2022-11-17T10:13:05.627Z,69.29
2022-11-17T10:14:06.913Z,69.25
2022-11-17T10:15:05.880Z,69.24
2022-11-17T10:16:07.535Z,69.21
2022-11-17T10:17:05.624Z,69.15
2022-11-17T10:18:07.876Z,69.11
2022-11-17T10:19:06.595Z,69.06
2022-11-17T10:20:06.208Z,69.01
2022-11-17T10:21:13.454Z,68.96
2022-11-17T10:22:06.367Z,68.91
2022-11-17T10:23:05.487Z,68.87
2022-11-17T10:24:06.304Z,68.85
2022-11-17T10:25:06.084Z,68.86
2022-11-17T10:26:05.179Z,68.86
2022-11-17T10:27:13.390Z,68.88
2022-11-17T10:28:05.567Z,68.86
2022-11-17T10:29:14.608Z,68.89
2022-11-17T10:30:06.916Z,68.86
2022-11-17T10:31:05.184Z,68.85
2022-11-17T10:32:06.281Z,68.84
2022-11-17T10:33:05.409Z,68.85
2022-11-17T10:34:07.050Z,68.87
2022-11-17T10:35:07.126Z,68.89
2022-11-17T10:36:05.087Z,68.92
2022-11-17T10:37:06.341Z,68.96
2022-11-17T10:38:04.998Z,68.98
2022-11-17T10:39:05.331Z,69.02
2022-11-17T10:40:05.521Z,69.05
2022-11-17T10:41:06.767Z,69.05
2022-11-17T10:42:12.227Z,69.05
2022-11-17T10:43:05.614Z,69.07
2022-11-17T10:44:07.077Z,69.09
2022-11-17T10:45:07.346Z,69.11
2022-11-17T10:46:05.997Z,69.09
2022-11-17T10:47:06.266Z,69.08
2022-11-17T10:48:05.068Z,69.07
2022-11-17T10:49:13.590Z,69.04
2022-11-17T10:50:06.131Z,69.03
2022-11-17T10:51:12.158Z,69.01
2022-11-17T10:52:06.933Z,69.00
2022-11-17T10:53:12.487Z,69.01
2022-11-17T10:54:06.323Z,69.01
2022-11-17T10:55:05.835Z,69.03
2022-11-17T10:56:04.814Z,69.03
2022-11-17T10:57:04.766Z,69.03
2022-11-17T10:58:08.666Z,69.01
2022-11-17T10:59:05.667Z,69.01
2022-11-17T11:00:05.154Z,68.99
2022-11-17T11:01:09.236Z,68.95
2022-11-17T11:02:05.553Z,68.93
2022-11-17T11:03:08.806Z,68.93
2022-11-17T11:04:11.470Z,68.92
2022-11-17T11:05:20.623Z,68.92
2022-11-17T11:06:54.164Z,68.66
2022-11-17T11:08:30.515Z,68.87
2022-11-17T11:09:31.507Z,68.90
2022-11-17T11:09:52.160Z,68.92
2022-11-17T11:11:38.693Z,68.92
2022-11-17T11:11:54.344Z,68.93
2022-11-17T11:13:28.282Z,68.93
2022-11-17T11:14:35.542Z,68.90
2022-11-17T11:14:55.153Z,68.90
2022-11-17T11:16:29.503Z,68.92
2022-11-17T11:17:41.457Z,68.91
2022-11-17T11:17:54.312Z,68.92
2022-11-17T11:19:29.804Z,68.93
2022-11-17T11:20:13.919Z,68.90
2022-11-17T11:21:29.580Z,68.90
2022-11-17T11:22:29.755Z,68.89
2022-11-17T11:23:23.506Z,68.88
2022-11-17T11:24:18.757Z,68.89
2022-11-17T11:24:53.044Z,68.87
2022-11-17T11:26:28.432Z,68.90
2022-11-17T11:26:54.283Z,68.93
2022-11-17T11:28:42.711Z,68.96
2022-11-17T11:28:55.123Z,68.95
2022-11-17T11:30:35.854Z,68.94
2022-11-17T11:30:53.175Z,68.92
2022-11-17T11:32:18.935Z,68.91
2022-11-17T11:33:37.760Z,68.89
2022-11-17T11:33:56.412Z,68.88
2022-11-17T11:34:53.960Z,68.89
2022-11-17T11:35:52.099Z,68.91
2022-11-17T11:36:52.531Z,68.89
2022-11-17T11:37:53.095Z,68.89
2022-11-17T11:38:59.629Z,68.87
2022-11-17T11:39:52.711Z,68.85
2022-11-17T11:40:52.673Z,68.83
2022-11-17T11:41:55.750Z,68.83
2022-11-17T11:43:03.886Z,68.84
2022-11-17T11:43:51.693Z,68.82
2022-11-17T11:44:52.897Z,68.86
2022-11-17T11:45:52.618Z,68.88
2022-11-17T11:46:52.194Z,68.87
2022-11-17T11:47:53.130Z,68.90
2022-11-17T11:48:51.946Z,68.91
2022-11-17T11:49:51.617Z,68.92
2022-11-17T11:50:53.117Z,68.92
2022-11-17T11:51:51.901Z,68.90
2022-11-17T11:52:51.937Z,68.89
2022-11-17T11:53:52.053Z,68.89
2022-11-17T11:54:52.381Z,68.91
2022-11-17T11:55:52.642Z,68.92
2022-11-17T11:56:52.482Z,68.91
2022-11-17T11:57:52.664Z,68.88
2022-11-17T11:58:53.521Z,68.86
2022-11-17T11:59:52.469Z,68.84
2022-11-17T12:00:51.739Z,68.86
2022-11-17T12:01:52.633Z,68.84
2022-11-17T12:02:52.436Z,68.84
2022-11-17T12:03:51.409Z,68.82
2022-11-17T12:04:51.462Z,68.78
2022-11-17T12:05:52.080Z,68.80
2022-11-17T12:06:51.514Z,68.81
2022-11-17T12:07:57.597Z,68.81
2022-11-17T12:08:53.582Z,68.76
2022-11-17T12:09:52.914Z,68.73
2022-11-17T12:10:59.341Z,68.72
2022-11-17T12:11:58.999Z,68.71
2022-11-17T12:12:52.478Z,68.69
2022-11-17T12:13:54.382Z,68.67
2022-11-17T12:14:51.586Z,68.67
2022-11-17T12:15:52.233Z,68.67
2022-11-17T12:16:51.334Z,68.67
2022-11-17T12:17:58.532Z,68.69
2022-11-17T12:18:53.858Z,68.71
2022-11-17T12:19:51.910Z,68.71
2022-11-17T12:20:51.602Z,68.73
2022-11-17T12:21:51.808Z,68.74
2022-11-17T12:22:51.256Z,68.74
2022-11-17T12:23:52.773Z,68.75
2022-11-17T12:24:51.158Z,68.76
2022-11-17T12:25:54.297Z,68.76
2022-11-17T12:26:52.300Z,68.78
2022-11-17T12:27:51.695Z,68.80
2022-11-17T12:28:51.518Z,68.83
2022-11-17T12:29:57.875Z,68.85
2022-11-17T12:30:53.946Z,68.88
2022-11-17T12:31:51.080Z,68.90
2022-11-17T12:32:51.820Z,68.93
2022-11-17T12:33:51.603Z,68.95
2022-11-17T12:34:53.315Z,68.94
2022-11-17T12:35:51.101Z,68.92
2022-11-17T12:36:52.200Z,68.92
2022-11-17T12:37:50.976Z,68.92
2022-11-17T12:38:52.828Z,68.95
2022-11-17T12:39:52.019Z,68.95
2022-11-17T12:40:57.915Z,68.98
2022-11-17T12:41:54.770Z,68.99
2022-11-17T12:42:50.997Z,69.01
2022-11-17T12:43:51.187Z,69.02
2022-11-17T12:44:51.269Z,69.00
2022-11-17T12:46:17.267Z,69.02
2022-11-17T12:46:57.935Z,69.03
2022-11-17T12:48:18.763Z,69.04
2022-11-17T12:48:51.902Z,69.05
2022-11-17T12:49:52.923Z,69.06
2022-11-17T12:50:51.908Z,69.06
2022-11-17T12:51:51.593Z,69.07
2022-11-17T12:52:52.744Z,69.09
2022-11-17T12:53:51.061Z,69.08
2022-11-17T12:54:53.273Z,69.09
2022-11-17T12:55:51.905Z,69.12
2022-11-17T12:56:52.713Z,69.12
2022-11-17T12:57:51.132Z,69.11
2022-11-17T12:58:52.742Z,69.11
2022-11-17T12:59:54.014Z,69.09
2022-11-17T13:00:52.028Z,69.09
2022-11-17T13:01:51.079Z,69.09
2022-11-17T13:02:51.574Z,69.08
2022-11-17T13:03:52.311Z,69.09
2022-11-17T13:04:55.192Z,69.11
2022-11-17T13:06:01.611Z,69.09
2022-11-17T13:06:53.513Z,69.07
2022-11-17T13:07:51.393Z,69.05
2022-11-17T13:08:52.660Z,69.07
2022-11-17T13:09:54.495Z,69.07
2022-11-17T13:10:50.582Z,69.07
2022-11-17T13:11:58.472Z,69.07
2022-11-17T13:12:51.001Z,69.09
2022-11-17T13:13:51.834Z,69.11
2022-11-17T13:14:51.832Z,69.15
2022-11-17T13:15:51.838Z,69.17
2022-11-17T13:16:51.320Z,69.17
2022-11-17T13:17:50.528Z,69.19
2022-11-17T13:18:51.988Z,69.21
2022-11-17T13:19:50.458Z,69.24
2022-11-17T13:20:52.650Z,69.28
2022-11-17T13:21:50.804Z,69.29
2022-11-17T13:22:50.513Z,69.30
2022-11-17T13:23:55.432Z,69.32
2022-11-17T13:24:50.923Z,69.32
2022-11-17T13:25:50.795Z,69.31
2022-11-17T13:26:57.410Z,69.31
2022-11-17T13:27:55.950Z,69.30
2022-11-17T13:28:53.461Z,69.30
2022-11-17T13:29:51.277Z,69.30
2022-11-17T13:30:50.887Z,69.32
2022-11-17T13:31:52.308Z,69.31
2022-11-17T13:32:51.529Z,69.32
2022-11-17T13:33:52.550Z,69.32
2022-11-17T13:34:50.568Z,69.30
2022-11-17T13:35:51.647Z,69.31
2022-11-17T13:36:50.271Z,69.31
2022-11-17T13:37:51.033Z,69.30
2022-11-17T13:38:51.727Z,69.30
2022-11-17T13:39:50.795Z,69.32
2022-11-17T13:40:51.388Z,69.30
2022-11-17T13:41:50.435Z,69.30
2022-11-17T13:42:51.424Z,69.29
2022-11-17T13:43:50.528Z,69.28
2022-11-17T13:44:51.123Z,69.28
2022-11-17T13:45:50.449Z,69.28
2022-11-17T13:46:52.492Z,69.28
2022-11-17T13:47:54.155Z,69.28
2022-11-17T13:48:50.386Z,69.31
2022-11-17T13:49:50.328Z,69.32
2022-11-17T13:50:51.091Z,69.30
2022-11-17T13:51:52.634Z,69.30
2022-11-17T13:52:51.506Z,69.28
2022-11-17T13:53:51.429Z,69.28
2022-11-17T13:54:50.782Z,69.30
2022-11-17T13:55:50.413Z,69.30
2022-11-17T13:56:50.946Z,69.30
2022-11-17T13:57:57.143Z,69.33
2022-11-17T13:58:49.995Z,69.32
2022-11-17T13:59:50.058Z,69.35
2022-11-17T14:00:50.341Z,69.37
2022-11-17T14:01:52.057Z,69.40
2022-11-17T14:02:51.192Z,69.42
2022-11-17T14:03:51.414Z,69.44
2022-11-17T14:04:50.862Z,69.45
2022-11-17T14:05:51.843Z,69.48
2022-11-17T14:07:34.439Z,69.23
2022-11-17T14:08:35.549Z,69.47
2022-11-17T14:09:34.660Z,69.52
2022-11-17T14:11:19.527Z,69.52
2022-11-17T14:11:45.506Z,69.55
2022-11-17T14:13:16.985Z,69.57
2022-11-17T14:13:37.030Z,69.56
2022-11-17T14:15:00.129Z,69.56
2022-11-17T14:16:17.532Z,69.56
2022-11-17T14:16:37.620Z,69.57
2022-11-17T14:18:20.705Z,69.57
2022-11-17T14:18:40.114Z,69.57
2022-11-17T14:20:20.593Z,69.58
2022-11-17T14:20:40.456Z,69.58
2022-11-17T14:22:24.804Z,69.60
2022-11-17T14:22:46.886Z,69.60
2022-11-17T14:24:04.282Z,69.62
2022-11-17T14:25:16.277Z,69.62
2022-11-17T14:25:36.139Z,69.61
2022-11-17T14:27:20.686Z,69.61
2022-11-17T14:27:41.176Z,69.63
2022-11-17T14:29:03.260Z,69.65
2022-11-17T14:30:11.675Z,69.64
2022-11-17T14:30:35.200Z,69.65
2022-11-17T14:32:18.987Z,69.63
2022-11-17T14:32:46.918Z,69.63
2022-11-17T14:33:59.481Z,69.62
2022-11-17T14:35:11.406Z,69.64
2022-11-17T14:35:34.811Z,69.65
2022-11-17T14:36:34.738Z,69.66
2022-11-17T14:37:34.137Z,69.67
2022-11-17T14:38:34.017Z,69.69
2022-11-17T14:39:34.118Z,69.70
2022-11-17T14:40:35.695Z,69.71
2022-11-17T14:41:34.621Z,69.72
2022-11-17T14:42:36.164Z,69.71
2022-11-17T14:43:38.111Z,69.75
2022-11-17T14:44:34.613Z,69.75
2022-11-17T14:45:34.682Z,69.77
2022-11-17T14:46:34.324Z,69.76
2022-11-17T14:47:34.856Z,69.78
2022-11-17T14:48:35.431Z,69.78
2022-11-17T14:49:34.654Z,69.79
2022-11-17T14:50:35.566Z,69.79
2022-11-17T14:51:34.125Z,69.79
2022-11-17T14:52:34.875Z,69.81
2022-11-17T14:53:39.197Z,69.82
2022-11-17T14:54:35.510Z,69.82
2022-11-17T14:55:33.943Z,69.84
2022-11-17T14:56:35.486Z,69.82
2022-11-17T14:57:33.964Z,69.83
2022-11-17T14:58:35.084Z,69.83
2022-11-17T14:59:33.561Z,69.85
2022-11-17T15:00:35.732Z,69.84
2022-11-17T15:01:34.082Z,69.85
2022-11-17T15:02:34.995Z,69.86
2022-11-17T15:03:35.270Z,69.86
2022-11-17T15:04:51.270Z,69.87
2022-11-17T15:05:35.501Z,69.88
2022-11-17T15:06:34.864Z,69.89
2022-11-17T15:07:35.431Z,69.89
2022-11-17T15:08:34.853Z,69.89
2022-11-17T15:09:36.036Z,69.88
2022-11-17T15:10:35.714Z,69.89
2022-11-17T15:11:39.241Z,69.88
2022-11-17T15:12:33.514Z,69.88
2022-11-17T15:13:35.212Z,69.89
2022-11-17T15:14:33.768Z,69.91
2022-11-17T15:15:33.382Z,69.91
2022-11-17T15:16:33.734Z,69.92
2022-11-17T15:17:33.968Z,69.91
2022-11-17T15:18:35.614Z,69.94
2022-11-17T15:19:34.656Z,69.94
2022-11-17T15:20:34.040Z,69.96
2022-11-17T15:21:34.355Z,69.95
2022-11-17T15:22:33.657Z,69.93
2022-11-17T15:23:34.530Z,69.94
2022-11-17T15:24:33.737Z,69.94
2022-11-17T15:25:33.643Z,69.94
2022-11-17T15:26:34.521Z,69.93
2022-11-17T15:27:33.253Z,69.92
2022-11-17T15:28:33.532Z,69.91
2022-11-17T15:29:39.596Z,69.91
2022-11-17T15:30:40.490Z,69.91
2022-11-17T15:31:34.414Z,69.91
2022-11-17T15:32:34.511Z,69.90
2022-11-17T15:33:33.492Z,69.89
2022-11-17T15:34:34.727Z,69.90
2022-11-17T15:35:36.218Z,69.88
2022-11-17T15:36:33.130Z,69.89
2022-11-17T15:37:33.527Z,69.90
2022-11-17T15:38:34.213Z,69.93
2022-11-17T15:39:33.391Z,69.94
2022-11-17T15:40:39.361Z,69.95
2022-11-17T15:41:34.404Z,69.96
2022-11-17T15:42:33.098Z,69.98
2022-11-17T15:43:35.248Z,70.00
2022-11-17T15:44:33.355Z,70.02
2022-11-17T15:45:33.360Z,70.03
2022-11-17T15:46:44.298Z,70.05
2022-11-17T15:47:35.643Z,70.04
2022-11-17T15:48:33.594Z,70.06
2022-11-17T15:49:34.863Z,70.06
2022-11-17T15:50:33.611Z,70.06
2022-11-17T15:51:33.238Z,70.06
2022-11-17T15:53:02.248Z,70.08
2022-11-17T15:53:34.222Z,70.09
2022-11-17T15:54:33.809Z,70.12
2022-11-17T15:55:33.402Z,70.11
2022-11-17T15:56:33.231Z,70.15
2022-11-17T15:57:33.918Z,70.16
2022-11-17T15:58:37.460Z,70.16
2022-11-17T15:59:33.212Z,70.18
2022-11-17T16:00:34.533Z,70.19
2022-11-17T16:01:38.211Z,70.21
2022-11-17T16:02:34.404Z,70.21
2022-11-17T16:03:35.483Z,70.23
2022-11-17T16:04:38.409Z,70.25
2022-11-17T16:05:33.406Z,70.25
2022-11-17T16:06:33.440Z,70.24
2022-11-17T16:07:33.851Z,70.25
2022-11-17T16:08:33.041Z,70.25
2022-11-17T16:09:34.045Z,70.25
2022-11-17T16:10:32.968Z,70.27
2022-11-17T16:11:46.345Z,70.28
2022-11-17T16:12:33.302Z,70.30
2022-11-17T16:13:33.491Z,70.29
2022-11-17T16:14:33.684Z,70.28
2022-11-17T16:15:34.586Z,70.29
2022-11-17T16:16:32.870Z,70.31
2022-11-17T16:17:32.675Z,70.31
2022-11-17T16:18:32.633Z,70.36
2022-11-17T16:19:32.616Z,70.37
2022-11-17T16:20:33.624Z,70.38
2022-11-17T16:21:32.967Z,70.37
2022-11-17T16:22:34.359Z,70.40
2022-11-17T16:23:33.637Z,70.38
2022-11-17T16:24:33.502Z,70.38
2022-11-17T16:25:32.904Z,70.40
2022-11-17T16:26:33.458Z,70.40
2022-11-17T16:27:33.328Z,70.40
2022-11-17T16:28:36.354Z,70.41
2022-11-17T16:29:32.784Z,70.41
2022-11-17T16:30:35.727Z,70.42
2022-11-17T16:31:33.871Z,70.42
2022-11-17T16:32:37.808Z,70.43
2022-11-17T16:33:33.054Z,70.44
2022-11-17T16:34:32.414Z,70.44
2022-11-17T16:35:36.252Z,70.44
2022-11-17T16:36:36.810Z,70.45
2022-11-17T16:37:32.627Z,70.46
2022-11-17T16:38:32.719Z,70.46
2022-11-17T16:39:32.708Z,70.47
2022-11-17T16:40:32.759Z,70.50
2022-11-17T16:41:33.324Z,70.51
2022-11-17T16:42:32.978Z,70.51
2022-11-17T16:43:41.642Z,70.54
2022-11-17T16:44:33.893Z,70.55
2022-11-17T16:45:32.501Z,70.53
2022-11-17T16:46:33.184Z,70.53
2022-11-17T16:47:33.213Z,70.50
2022-11-17T16:48:34.795Z,70.49
2022-11-17T16:49:33.442Z,70.51
2022-11-17T16:50:32.877Z,70.51
2022-11-17T16:51:32.744Z,70.51
2022-11-17T16:52:32.596Z,70.52
2022-11-17T16:53:33.911Z,70.53
2022-11-17T16:54:33.018Z,70.53
2022-11-17T16:55:32.264Z,70.53
2022-11-17T16:56:33.812Z,70.54
2022-11-17T16:57:32.702Z,70.53
2022-11-17T16:58:34.151Z,70.54
2022-11-17T16:59:34.909Z,70.54
2022-11-17T17:00:32.413Z,70.54
2022-11-17T17:01:36.262Z,70.55
2022-11-17T17:02:32.379Z,70.52
2022-11-17T17:03:36.878Z,70.54
2022-11-17T17:04:32.157Z,70.52
2022-11-17T17:05:35.090Z,70.52
2022-11-17T17:06:32.629Z,70.52
2022-11-17T17:07:32.193Z,70.51
2022-11-17T17:08:33.206Z,70.49
2022-11-17T17:09:32.611Z,70.49
2022-11-17T17:10:35.682Z,70.49
2022-11-17T17:11:33.383Z,70.47
2022-11-17T17:12:32.052Z,70.48
2022-11-17T17:13:32.427Z,70.47
2022-11-17T17:14:32.612Z,70.47
2022-11-17T17:15:32.130Z,70.43
2022-11-17T17:16:38.675Z,70.40
2022-11-17T17:17:32.698Z,70.40
2022-11-17T17:18:32.538Z,70.39
2022-11-17T17:19:33.210Z,70.40
2022-11-17T17:20:32.393Z,70.39
2022-11-17T17:21:31.898Z,70.39
2022-11-17T17:22:46.243Z,70.39
2022-11-17T17:23:32.712Z,70.37
2022-11-17T17:24:32.303Z,70.37
2022-11-17T17:25:34.240Z,70.38
2022-11-17T17:26:32.531Z,70.35
2022-11-17T17:27:33.102Z,70.34
2022-11-17T17:28:31.828Z,70.33
2022-11-17T17:29:31.763Z,70.31
2022-11-17T17:30:32.690Z,70.28
2022-11-17T17:31:39.069Z,70.28
2022-11-17T17:32:33.982Z,70.28
2022-11-17T17:33:32.197Z,70.30
2022-11-17T17:34:32.444Z,70.27
2022-11-17T17:35:31.937Z,70.29
2022-11-17T17:36:32.925Z,70.27
2022-11-17T17:37:33.037Z,70.28
2022-11-17T17:38:36.194Z,70.29
2022-11-17T17:39:31.682Z,70.32
2022-11-17T17:40:31.669Z,70.32
2022-11-17T17:41:33.559Z,70.33
2022-11-17T17:42:33.390Z,70.34
2022-11-17T17:43:32.075Z,70.35
2022-11-17T17:44:31.862Z,70.35
2022-11-17T17:45:31.633Z,70.37
2022-11-17T17:46:31.499Z,70.36
2022-11-17T17:47:33.216Z,70.39
2022-11-17T17:48:31.788Z,70.37
2022-11-17T17:49:31.496Z,70.37
2022-11-17T17:50:31.849Z,70.39
2022-11-17T17:51:32.833Z,70.39
2022-11-17T17:52:33.010Z,70.38
2022-11-17T17:53:32.572Z,70.37
2022-11-17T17:55:14.615Z,70.12
2022-11-17T17:56:14.496Z,70.28
2022-11-17T17:57:14.856Z,70.32
2022-11-17T17:58:14.866Z,70.28
2022-11-17T17:59:15.781Z,70.28
2022-11-17T18:00:14.827Z,70.29
2022-11-17T18:01:14.743Z,70.29
2022-11-17T18:02:36.530Z,70.26
2022-11-17T18:03:15.369Z,70.27
2022-11-17T18:04:16.586Z,70.25
2022-11-17T18:05:14.423Z,70.24
2022-11-17T18:06:15.481Z,70.23
2022-11-17T18:07:14.457Z,70.21
2022-11-17T18:08:14.317Z,70.21
2022-11-17T18:09:16.595Z,70.20
2022-11-17T18:10:15.263Z,70.18
2022-11-17T18:11:14.393Z,70.18
2022-11-17T18:12:14.285Z,70.19
2022-11-17T18:13:16.274Z,70.20
2022-11-17T18:14:16.100Z,70.19
2022-11-17T18:15:15.382Z,70.21
2022-11-17T18:16:15.332Z,70.23
2022-11-17T18:17:15.306Z,70.25
2022-11-17T18:18:14.212Z,70.27
2022-11-17T18:19:15.395Z,70.29
2022-11-17T18:20:15.503Z,70.29
2022-11-17T18:21:14.442Z,70.30
2022-11-17T18:22:14.527Z,70.30
2022-11-17T18:23:14.623Z,70.28
2022-11-17T18:24:15.987Z,70.31
2022-11-17T18:25:17.835Z,70.31
2022-11-17T18:26:15.387Z,70.31
2022-11-17T18:27:18.061Z,70.32
2022-11-17T18:28:14.473Z,70.34
2022-11-17T18:29:14.887Z,70.36
2022-11-17T18:30:14.024Z,70.35
2022-11-17T18:31:14.346Z,70.35
2022-11-17T18:32:15.300Z,70.36
2022-11-17T18:33:14.363Z,70.36
2022-11-17T18:34:14.600Z,70.38
2022-11-17T18:35:14.085Z,70.39
2022-11-17T18:36:14.254Z,70.40
2022-11-17T18:37:14.806Z,70.44
2022-11-17T18:38:14.943Z,70.43
2022-11-17T18:39:15.248Z,70.43
2022-11-17T18:40:14.054Z,70.44
2022-11-17T18:41:14.938Z,70.44
2022-11-17T18:42:17.357Z,70.44
2022-11-17T18:43:14.448Z,70.43
2022-11-17T18:44:20.183Z,70.43
2022-11-17T18:45:13.911Z,70.43
2022-11-17T18:46:13.831Z,70.40
2022-11-17T18:47:13.848Z,70.42
2022-11-17T18:48:14.625Z,70.42
2022-11-17T18:49:14.190Z,70.42
2022-11-17T18:50:14.760Z,70.41
2022-11-17T18:51:21.868Z,70.40
2022-11-17T18:52:15.386Z,70.43
2022-11-17T18:53:14.620Z,70.42
2022-11-17T18:54:14.093Z,70.43
2022-11-17T18:55:17.624Z,70.42
2022-11-17T18:56:19.552Z,70.42
2022-11-17T18:57:14.358Z,70.41
2022-11-17T18:58:13.750Z,70.43
2022-11-17T18:59:15.395Z,70.43
2022-11-17T19:00:13.752Z,70.43
2022-11-17T19:01:13.740Z,70.41
2022-11-17T19:02:13.719Z,70.42
2022-11-17T19:03:13.914Z,70.42
2022-11-17T19:04:20.129Z,70.41
2022-11-17T19:05:17.973Z,70.42
2022-11-17T19:06:14.871Z,70.42
2022-11-17T19:07:16.272Z,70.41
2022-11-17T19:08:18.192Z,70.41
2022-11-17T19:09:14.364Z,70.42
2022-11-17T19:10:13.626Z,70.41
2022-11-17T19:11:14.837Z,70.41
2022-11-17T19:12:16.346Z,70.44
2022-11-17T19:13:13.685Z,70.45
2022-11-17T19:14:14.714Z,70.44
2022-11-17T19:15:14.263Z,70.44
2022-11-17T19:16:13.754Z,70.42
2022-11-17T19:17:14.434Z,70.42
2022-11-17T19:18:14.297Z,70.41
2022-11-17T19:19:14.288Z,70.42
2022-11-17T19:20:13.770Z,70.42
2022-11-17T19:21:15.616Z,70.39
2022-11-17T19:22:15.224Z,70.38
2022-11-17T19:23:15.051Z,70.38
2022-11-17T19:24:16.945Z,70.39
2022-11-17T19:25:21.081Z,70.42
2022-11-17T19:26:14.161Z,70.42
2022-11-17T19:27:21.512Z,70.41
2022-11-17T19:28:13.345Z,70.42
2022-11-17T19:29:17.126Z,70.40
2022-11-17T19:30:14.499Z,70.40
2022-11-17T19:31:13.354Z,70.38
2022-11-17T19:32:15.491Z,70.38
2022-11-17T19:33:20.216Z,70.39
2022-11-17T19:34:14.294Z,70.39
2022-11-17T19:35:34.768Z,70.37
2022-11-17T19:36:13.255Z,70.36
2022-11-17T19:37:13.661Z,70.34
2022-11-17T19:38:13.473Z,70.33
2022-11-17T19:39:19.595Z,70.33
2022-11-17T19:40:13.187Z,70.32
2022-11-17T19:41:15.590Z,70.32
2022-11-17T19:42:18.830Z,70.33
2022-11-17T19:43:17.934Z,70.30
2022-11-17T19:44:13.463Z,70.30
2022-11-17T19:45:14.061Z,70.29
2022-11-17T19:46:17.627Z,70.28
2022-11-17T19:47:13.620Z,70.28
2022-11-17T19:48:13.447Z,70.27
2022-11-17T19:49:13.595Z,70.26
2022-11-17T19:50:13.028Z,70.24
2022-11-17T19:51:13.976Z,70.24
2022-11-17T19:52:18.180Z,70.23
2022-11-17T19:53:14.299Z,70.23
2022-11-17T19:54:13.934Z,70.22
2022-11-17T19:55:13.416Z,70.22
2022-11-17T19:56:13.387Z,70.22
2022-11-17T19:57:13.908Z,70.25
2022-11-17T19:58:13.302Z,70.26
2022-11-17T19:59:16.420Z,70.25
2022-11-17T20:00:17.698Z,70.27
2022-11-17T20:01:13.727Z,70.27
2022-11-17T20:02:14.669Z,70.27
2022-11-17T20:03:13.139Z,70.26
2022-11-17T20:04:13.955Z,70.25
2022-11-17T20:05:13.141Z,70.24
2022-11-17T20:06:12.935Z,70.23
2022-11-17T20:07:13.803Z,70.21
2022-11-17T20:08:13.056Z,70.21
2022-11-17T20:09:13.266Z,70.20
2022-11-17T20:10:14.043Z,70.22
2022-11-17T20:11:12.926Z,70.24
2022-11-17T20:12:13.769Z,70.22
2022-11-17T20:13:14.148Z,70.23
2022-11-17T20:14:12.999Z,70.23
2022-11-17T20:15:33.001Z,70.21
2022-11-17T20:16:19.695Z,70.21
2022-11-17T20:17:13.086Z,70.23
2022-11-17T20:18:12.663Z,70.23
2022-11-17T20:19:14.207Z,70.23
2022-11-17T20:20:13.880Z,70.23
2022-11-17T20:21:18.983Z,70.22
2022-11-17T20:22:13.431Z,70.22
2022-11-17T20:23:13.233Z,70.22
2022-11-17T20:24:13.946Z,70.21
2022-11-17T20:25:15.398Z,70.19
2022-11-17T20:26:13.682Z,70.18
2022-11-17T20:27:12.585Z,70.17
2022-11-17T20:28:12.602Z,70.17
2022-11-17T20:29:13.464Z,70.18
2022-11-17T20:30:15.413Z,70.16
2022-11-17T20:31:14.106Z,70.13
2022-11-17T20:32:15.368Z,70.12
2022-11-17T20:33:13.328Z,70.12
2022-11-17T20:34:13.074Z,70.11
2022-11-17T20:35:12.801Z,70.12
2022-11-17T20:36:13.402Z,70.10
2022-11-17T20:37:13.775Z,70.10
2022-11-17T20:38:15.677Z,70.11
2022-11-17T20:39:13.444Z,70.09
2022-11-17T20:40:12.688Z,70.10
2022-11-17T20:41:13.067Z,70.10
2022-11-17T20:42:13.561Z,70.08
2022-11-17T20:43:12.679Z,70.11
2022-11-17T20:44:13.893Z,70.10
2022-11-17T20:45:13.027Z,70.11
2022-11-17T20:46:13.375Z,70.11
2022-11-17T20:47:12.568Z,70.09
2022-11-17T20:48:13.265Z,70.08
2022-11-17T20:49:13.113Z,70.06
2022-11-17T20:50:12.294Z,70.07
2022-11-17T20:51:12.234Z,70.05
2022-11-17T20:52:13.591Z,70.05
2022-11-17T20:53:20.049Z,70.04
2022-11-17T20:54:12.800Z,70.04
2022-11-17T20:55:13.227Z,70.04
2022-11-17T20:56:12.868Z,70.06
2022-11-17T20:57:12.990Z,70.03
2022-11-17T20:58:12.509Z,70.03
2022-11-17T20:59:18.534Z,70.03